Time;durP1;ratioP1;P1;durP2;ratioP2;P2;SDS_P1;SDS_P2;PMS_P1;PMS_P2;Temp;Humidity;BMP_temperature;BMP_pressure;BME280_temperature;BME280_humidity;BME280_pressure;Samples;Min_cycle;Max_cycle;Signal;HPM_P1;HPM_P2
2023/05/21 00:00:32;;;;;;;5.93;3.87;;;19.50;82.20;;;;;;10675852;33;20052;-73
2023/05/21 00:06:35;;;;;;;5.95;4.12;;;19.50;82.10;;;;;;10675397;33;20176;-73
2023/05/21 00:12:38;;;;;;;5.35;4.37;;;19.40;82.10;;;;;;10675623;33;20055;-73
2023/05/21 00:18:40;;;;;;;7.40;5.05;;;19.40;82.30;;;;;;10692396;33;20060;-73
2023/05/21 00:24:44;;;;;;;6.07;4.60;;;19.40;82.40;;;;;;10714853;33;20056;-73
2023/05/21 00:30:46;;;;;;;7.15;4.70;;;19.30;82.40;;;;;;10699198;33;20423;-73
2023/05/21 00:36:48;;;;;;;7.00;4.62;;;19.30;82.70;;;;;;10706959;33;20021;-73
2023/05/21 00:42:50;;;;;;;9.23;4.95;;;19.30;82.60;;;;;;10708395;33;20025;-73
2023/05/21 00:48:53;;;;;;;7.28;4.53;;;19.30;82.60;;;;;;10721429;33;20036;-73
2023/05/21 00:54:55;;;;;;;6.53;4.10;;;19.30;82.60;;;;;;10719927;33;20025;-73
2023/05/21 01:00:57;;;;;;;4.70;3.53;;;19.30;82.50;;;;;;10708564;33;20048;-73
2023/05/21 01:06:59;;;;;;;5.60;3.87;;;19.30;82.60;;;;;;10720645;33;20033;-73
2023/05/21 01:13:01;;;;;;;6.55;4.45;;;19.30;82.70;;;;;;10720014;33;20021;-73
2023/05/21 01:19:05;;;;;;;5.05;3.80;;;19.30;82.70;;;;;;10704099;32;20041;-75
2023/05/21 01:25:08;;;;;;;6.25;4.10;;;19.30;82.60;;;;;;10719065;33;20021;-73
2023/05/21 01:31:26;;;;;;;6.97;5.15;;;19.30;82.60;;;;;;10720202;33;20091;-73
2023/05/21 01:37:36;;;;;;;5.50;3.87;;;19.30;82.60;;;;;;10705412;33;20319;-73
2023/05/21 01:43:41;;;;;;;7.35;4.75;;;19.30;82.70;;;;;;10706325;32;20052;-73
2023/05/21 01:49:44;;;;;;;7.30;4.93;;;19.30;82.60;;;;;;10706233;33;20021;-73
2023/05/21 01:55:47;;;;;;;7.50;4.85;;;19.30;82.50;;;;;;10716092;33;20021;-73
2023/05/21 02:01:49;;;;;;;8.40;5.32;;;19.30;82.50;;;;;;10706334;33;20021;-73
2023/05/21 02:07:51;;;;;;;6.80;4.85;;;19.30;82.60;;;;;;10718899;33;20043;-73
2023/05/21 02:13:53;;;;;;;7.03;4.93;;;19.30;82.60;;;;;;10717649;33;20052;-73
2023/05/21 02:19:56;;;;;;;7.18;4.85;;;19.30;82.60;;;;;;10718713;33;20063;-73
2023/05/21 02:25:58;;;;;;;6.20;4.03;;;19.30;82.70;;;;;;10704496;33;20059;-72
2023/05/21 02:32:00;;;;;;;6.30;4.35;;;19.30;82.80;;;;;;10717656;33;20378;-73
2023/05/21 02:38:02;;;;;;;7.25;4.65;;;19.20;82.80;;;;;;10717014;33;20048;-72
2023/05/21 02:44:04;;;;;;;4.45;3.72;;;19.20;82.60;;;;;;10716712;33;20426;-73
2023/05/21 02:50:07;;;;;;;5.85;3.90;;;19.20;82.80;;;;;;10717768;33;20017;-73
2023/05/21 02:56:11;;;;;;;6.87;5.03;;;19.20;82.80;;;;;;10704339;33;20047;-73
2023/05/21 03:02:13;;;;;;;7.40;5.50;;;19.30;82.80;;;;;;10715895;33;20025;-73
2023/05/21 03:08:15;;;;;;;7.45;5.72;;;19.30;82.50;;;;;;10716698;33;20025;-73
2023/05/21 03:14:17;;;;;;;7.37;5.95;;;19.30;82.40;;;;;;10717180;33;20025;-73
2023/05/21 03:20:20;;;;;;;7.05;5.62;;;19.30;82.10;;;;;;10716483;33;20017;-73
2023/05/21 03:26:22;;;;;;;7.55;5.07;;;19.30;81.70;;;;;;10703348;33;20021;-73
2023/05/21 03:32:24;;;;;;;7.25;5.65;;;19.30;81.60;;;;;;10716685;33;20050;-73
2023/05/21 03:38:50;;;;;;;7.65;5.75;;;19.30;81.70;;;;;;10704287;33;20029;-73
2023/05/21 03:44:53;;;;;;;8.25;5.82;;;19.30;81.40;;;;;;10715102;33;20056;-72
2023/05/21 03:50:58;;;;;;;9.85;5.37;;;19.30;81.70;;;;;;10716136;33;20043;-73
2023/05/21 03:57:00;;;;;;;6.87;5.50;;;19.30;81.50;;;;;;10715481;33;20021;-73
2023/05/21 04:03:03;;;;;;;8.25;5.78;;;19.30;81.70;;;;;;10714742;33;20067;-73
2023/05/21 04:09:05;;;;;;;7.68;5.60;;;19.30;81.60;;;;;;10716354;33;20029;-73
2023/05/21 04:15:08;;;;;;;9.43;6.35;;;19.30;81.70;;;;;;10721614;33;20396;-73
2023/05/21 04:21:10;;;;;;;9.02;5.30;;;19.30;81.90;;;;;;10722015;33;20056;-73
2023/05/21 04:27:12;;;;;;;7.90;5.97;;;19.30;81.40;;;;;;10718529;33;20024;-73
2023/05/21 04:33:18;;;;;;;6.75;4.82;;;19.30;81.50;;;;;;10720540;33;20025;-73
2023/05/21 04:39:21;;;;;;;7.68;5.70;;;19.30;81.50;;;;;;10717313;33;20033;-73
2023/05/21 04:45:35;;;;;;;8.90;5.57;;;19.30;81.60;;;;;;10716353;33;20033;-73
2023/05/21 04:51:38;;;;;;;6.53;5.20;;;19.30;81.60;;;;;;10706439;32;20028;-73
2023/05/21 04:57:40;;;;;;;7.25;5.45;;;19.30;81.70;;;;;;10706081;33;20111;-73
2023/05/21 05:03:44;;;;;;;7.03;4.50;;;19.30;81.70;;;;;;10720734;33;20047;-73
2023/05/21 05:09:46;;;;;;;5.40;3.78;;;19.30;81.60;;;;;;10720557;33;20021;-73
2023/05/21 05:15:49;;;;;;;6.62;4.93;;;19.30;81.60;;;;;;10720525;33;20020;-73
2023/05/21 05:21:51;;;;;;;6.45;5.22;;;19.30;81.50;;;;;;10718300;33;20025;-73
2023/05/21 05:27:54;;;;;;;9.10;5.68;;;19.30;81.30;;;;;;10706179;33;20068;-73
2023/05/21 05:33:57;;;;;;;6.78;4.55;;;19.40;81.30;;;;;;10719677;33;20021;-73
2023/05/21 05:39:59;;;;;;;5.95;3.55;;;19.50;81.20;;;;;;10718743;33;20017;-73
2023/05/21 05:46:01;;;;;;;7.80;4.68;;;19.60;81.00;;;;;;10718484;33;20033;-73
2023/05/21 05:52:04;;;;;;;5.72;3.97;;;19.60;80.90;;;;;;10719086;33;20025;-72
2023/05/21 05:58:06;;;;;;;5.65;3.67;;;19.70;81.00;;;;;;10705872;32;20041;-73
2023/05/21 06:04:13;;;;;;;7.00;4.93;;;19.70;81.00;;;;;;10719047;33;20055;-74
2023/05/21 06:10:15;;;;;;;7.12;5.20;;;19.70;80.80;;;;;;10717882;33;20060;-73
2023/05/21 06:16:17;;;;;;;6.45;4.40;;;19.80;80.90;;;;;;10718810;33;20025;-72
2023/05/21 06:22:20;;;;;;;8.45;5.90;;;20.00;80.60;;;;;;10716006;33;20041;-73
2023/05/21 06:28:25;;;;;;;7.55;5.32;;;20.10;80.30;;;;;;10717324;33;20025;-72
2023/05/21 06:34:27;;;;;;;7.37;5.15;;;20.20;80.20;;;;;;10718050;33;20055;-72
2023/05/21 06:40:29;;;;;;;8.93;6.93;;;20.20;80.10;;;;;;10717461;33;20031;-73
2023/05/21 06:46:33;;;;;;;8.43;6.03;;;20.30;79.70;;;;;;10717906;33;20041;-74
2023/05/21 06:52:35;;;;;;;8.73;6.72;;;20.40;80.00;;;;;;10704590;33;20017;-73
2023/05/21 06:58:37;;;;;;;9.88;7.72;;;20.70;79.70;;;;;;10716255;33;20029;-72
2023/05/21 07:04:40;;;;;;;8.98;6.85;;;21.00;79.20;;;;;;10717369;33;20029;-73
2023/05/21 07:10:47;;;;;;;11.00;9.15;;;21.30;79.20;;;;;;10715399;33;20160;-70
2023/05/21 07:16:50;;;;;;;10.73;8.10;;;21.50;78.80;;;;;;10717583;33;20025;-73
2023/05/21 07:29:04;;;;;;;10.55;8.23;;;21.80;79.40;;;;;;10858556;32;7353579;-72
2023/05/21 07:35:07;;;;;;;9.10;6.32;;;21.80;78.30;;;;;;11051738;32;20013;-72
2023/05/21 07:41:22;;;;;;;11.52;9.77;;;21.90;77.90;;;;;;11050926;32;20332;-73
2023/05/21 07:47:25;;;;;;;11.73;8.27;;;21.90;77.80;;;;;;11050045;32;20026;-71
2023/05/21 07:53:31;;;;;;;10.10;8.25;;;21.90;77.60;;;;;;11049828;32;20019;-73
2023/05/21 07:59:55;;;;;;;8.68;6.75;;;22.10;77.50;;;;;;11036561;32;20018;-73
2023/05/21 08:05:58;;;;;;;9.65;7.47;;;22.40;77.20;;;;;;11049468;32;20015;-72
2023/05/21 08:12:00;;;;;;;12.45;7.80;;;22.70;76.80;;;;;;11050475;32;20048;-71
2023/05/21 08:18:03;;;;;;;14.85;8.18;;;22.90;76.40;;;;;;11031170;32;20088;-73
2023/05/21 08:24:06;;;;;;;9.02;7.00;;;23.10;75.30;;;;;;11016191;32;20037;-74
2023/05/21 08:30:10;;;;;;;10.40;7.53;;;23.20;73.60;;;;;;11011072;32;20026;-73
2023/05/21 08:36:12;;;;;;;9.88;6.95;;;23.40;74.20;;;;;;10984391;32;20084;-72
2023/05/21 08:42:25;;;;;;;9.57;7.65;;;23.60;75.00;;;;;;10980590;32;20023;-73
2023/05/21 08:48:29;;;;;;;12.70;8.43;;;23.70;72.60;;;;;;10984862;32;20329;-72
2023/05/21 08:54:32;;;;;;;21.05;7.00;;;23.80;72.30;;;;;;10969961;32;20034;-74
2023/05/21 09:00:36;;;;;;;9.50;6.93;;;23.90;71.60;;;;;;10984583;32;20392;-76
2023/05/21 09:06:40;;;;;;;15.85;8.45;;;24.10;71.80;;;;;;10970887;32;20034;-71
2023/05/21 09:12:43;;;;;;;12.80;7.40;;;24.30;71.50;;;;;;10970114;32;20054;-74
2023/05/21 09:18:45;;;;;;;13.98;7.70;;;24.30;71.40;;;;;;10981013;32;20344;-72
2023/05/21 09:24:50;;;;;;;9.90;6.97;;;24.40;69.50;;;;;;10990200;32;20034;-74
2023/05/21 09:30:53;;;;;;;8.27;6.35;;;24.60;71.30;;;;;;11008036;32;20058;-73
2023/05/21 09:37:00;;;;;;;10.43;6.55;;;24.70;69.40;;;;;;10967750;32;20065;-72
2023/05/21 09:43:04;;;;;;;12.70;6.97;;;24.80;70.20;;;;;;10988344;32;20027;-73
2023/05/21 09:49:20;;;;;;;10.55;7.72;;;24.90;68.50;;;;;;10982014;32;20045;-75
2023/05/21 09:55:27;;;;;;;9.27;6.57;;;25.00;70.60;;;;;;10982913;32;20042;-73
2023/05/21 10:01:33;;;;;;;18.27;6.45;;;25.10;67.30;;;;;;10982871;32;20022;-72
2023/05/21 10:07:36;;;;;;;11.43;7.97;;;25.30;65.50;;;;;;10978367;32;20301;-73
2023/05/21 10:13:44;;;;;;;7.30;5.18;;;25.40;66.60;;;;;;10987860;32;20034;-73
2023/05/21 10:19:47;;;;;;;9.82;7.07;;;25.50;64.20;;;;;;11007269;32;20015;-76
2023/05/21 10:25:51;;;;;;;10.52;7.85;;;25.60;63.60;;;;;;11019766;32;20045;-71
2023/05/21 10:31:53;;;;;;;9.07;6.65;;;25.80;65.60;;;;;;11005251;32;20046;-72
2023/05/21 10:37:57;;;;;;;6.97;4.82;;;25.90;64.00;;;;;;11019703;32;20206;-75
2023/05/21 10:44:21;;;;;;;16.85;7.20;;;26.10;63.60;;;;;;11014895;32;20018;-72
2023/05/21 10:51:00;;;;;;;12.13;6.72;;;26.30;63.10;;;;;;11015431;32;20387;-71
2023/05/21 10:57:16;;;;;;;9.40;6.00;;;26.30;62.90;;;;;;10980320;32;20037;-73
2023/05/21 11:03:18;;;;;;;9.68;6.40;;;26.40;63.00;;;;;;10980028;32;20026;-74
2023/05/21 11:09:21;;;;;;;9.48;6.15;;;26.70;61.70;;;;;;10979904;32;20025;-72
2023/05/21 11:15:24;;;;;;;11.15;5.60;;;26.90;60.00;;;;;;10966745;32;20436;-74
2023/05/21 11:21:29;;;;;;;12.35;5.30;;;26.70;61.30;;;;;;10977127;32;20340;-75
2023/05/21 11:27:32;;;;;;;10.93;5.45;;;27.00;60.30;;;;;;10975086;32;20030;-74
2023/05/21 11:33:34;;;;;;;7.30;5.15;;;27.20;62.60;;;;;;10976724;32;20011;-74
2023/05/21 11:39:39;;;;;;;8.55;5.32;;;27.30;60.90;;;;;;10993772;32;20049;-72
2023/05/21 11:45:45;;;;;;;8.75;5.47;;;27.30;58.90;;;;;;11017868;32;20018;-77
2023/05/21 11:51:48;;;;;;;6.57;4.20;;;27.40;58.40;;;;;;11004215;32;20037;-73
2023/05/21 11:57:52;;;;;;;7.25;5.00;;;27.50;57.00;;;;;;10981076;32;20023;-72
2023/05/21 12:03:54;;;;;;;13.18;4.43;;;27.70;57.30;;;;;;10992759;32;20023;-72
2023/05/21 12:09:57;;;;;;;6.78;3.85;;;27.80;56.30;;;;;;11010384;32;20017;-73
2023/05/21 12:16:01;;;;;;;8.43;5.15;;;27.90;54.60;;;;;;11024224;32;20041;-74
2023/05/21 12:22:04;;;;;;;7.68;4.35;;;27.90;54.90;;;;;;11024891;32;20072;-71
2023/05/21 12:28:06;;;;;;;8.30;4.82;;;27.90;57.70;;;;;;11003749;32;20045;-76
2023/05/21 12:34:09;;;;;;;7.82;5.20;;;28.00;55.00;;;;;;10981623;32;20015;-74
2023/05/21 12:40:12;;;;;;;13.50;5.72;;;28.00;52.80;;;;;;10981865;32;20422;-75
2023/05/21 12:46:18;;;;;;;9.10;4.43;;;28.00;55.70;;;;;;10971541;32;20055;-75
2023/05/21 12:52:21;;;;;;;10.55;6.62;;;28.00;56.20;;;;;;10987371;32;20041;-72
2023/05/21 12:58:23;;;;;;;7.50;4.12;;;28.10;54.00;;;;;;11023381;32;20076;-74
2023/05/21 13:04:25;;;;;;;6.50;4.65;;;28.10;53.30;;;;;;11020481;32;20030;-75
2023/05/21 13:10:27;;;;;;;10.63;5.32;;;28.10;54.40;;;;;;11021558;32;20019;-74
2023/05/21 13:16:29;;;;;;;8.68;5.22;;;28.10;53.90;;;;;;11022313;32;20037;-76
2023/05/21 13:22:32;;;;;;;6.85;4.50;;;28.00;53.30;;;;;;11021132;32;20019;-71
2023/05/21 13:28:34;;;;;;;10.18;4.95;;;28.00;52.60;;;;;;11021181;32;20084;-73
2023/05/21 13:34:36;;;;;;;9.70;6.07;;;28.00;55.30;;;;;;11022012;32;20014;-73
2023/05/21 13:40:38;;;;;;;15.27;5.75;;;28.00;53.80;;;;;;11008266;32;20091;-74
2023/05/21 13:46:41;;;;;;;7.20;5.18;;;27.90;56.80;;;;;;11021010;32;20040;-72
2023/05/21 13:52:43;;;;;;;7.97;4.35;;;27.80;57.50;;;;;;11021608;32;20014;-74
2023/05/21 13:58:45;;;;;;;13.32;5.65;;;27.80;57.10;;;;;;11021147;32;20010;-76
2023/05/21 14:04:48;;;;;;;12.68;4.18;;;27.80;59.40;;;;;;11018687;32;20321;-73
2023/05/21 14:10:50;;;;;;;6.12;4.57;;;27.80;56.40;;;;;;11021309;32;20396;-71
2023/05/21 14:16:53;;;;;;;8.05;5.85;;;27.80;54.80;;;;;;11016836;32;20018;-74
2023/05/21 14:22:55;;;;;;;10.60;6.87;;;27.80;53.20;;;;;;11018887;32;20018;-72
2023/05/21 14:28:57;;;;;;;9.43;5.62;;;27.80;54.40;;;;;;11015298;32;20022;-73
2023/05/21 14:35:00;;;;;;;23.08;5.93;;;27.80;55.00;;;;;;11019517;32;20402;-74
2023/05/21 14:41:02;;;;;;;7.40;4.82;;;27.80;54.80;;;;;;11000704;32;20030;-70
2023/05/21 14:47:04;;;;;;;7.62;4.68;;;27.80;58.80;;;;;;11018886;32;20080;-76
2023/05/21 14:53:08;;;;;;;9.18;4.32;;;27.70;57.90;;;;;;11002755;32;20397;-73
2023/05/21 14:59:11;;;;;;;7.18;5.05;;;27.70;55.40;;;;;;10978380;32;20022;-75
2023/05/21 15:05:13;;;;;;;9.32;6.50;;;27.80;55.20;;;;;;10979237;32;20058;-72
2023/05/21 15:11:15;;;;;;;8.07;5.22;;;27.80;54.00;;;;;;10980875;32;20010;-73
2023/05/21 15:17:17;;;;;;;10.38;5.90;;;27.80;53.00;;;;;;10979888;32;20015;-72
2023/05/21 15:23:19;;;;;;;9.93;6.40;;;27.80;52.60;;;;;;10980058;27;20010;-72
2023/05/21 15:29:22;;;;;;;7.90;5.57;;;27.80;53.60;;;;;;10861363;32;20016;-73
2023/05/21 15:35:24;;;;;;;11.70;4.53;;;27.80;55.30;;;;;;10847213;32;20067;-73
2023/05/21 15:41:26;;;;;;;8.43;6.68;;;27.80;54.10;;;;;;10847940;32;20024;-73
2023/05/21 15:47:28;;;;;;;8.15;4.40;;;27.90;53.90;;;;;;10859745;32;20023;-73
2023/05/21 15:53:30;;;;;;;10.07;5.45;;;27.80;55.70;;;;;;10867337;32;20027;-73
2023/05/21 15:59:32;;;;;;;10.38;5.90;;;27.80;53.40;;;;;;10868085;32;20011;-73
2023/05/21 16:05:34;;;;;;;8.85;5.60;;;27.90;56.00;;;;;;10868075;32;20334;-74
2023/05/21 16:11:36;;;;;;;9.52;6.72;;;27.80;55.20;;;;;;10867716;32;20012;-72
2023/05/21 16:17:38;;;;;;;7.18;4.72;;;27.80;55.50;;;;;;10867399;32;20310;-72
2023/05/21 16:23:41;;;;;;;9.35;6.22;;;27.80;55.70;;;;;;10866564;32;20020;-74
2023/05/21 16:29:43;;;;;;;9.48;4.07;;;27.90;54.40;;;;;;10865923;32;20070;-74
2023/05/21 16:35:45;;;;;;;7.15;4.68;;;27.90;54.20;;;;;;10866580;32;20015;-73
2023/05/21 16:41:47;;;;;;;6.55;3.92;;;28.00;53.40;;;;;;10866773;32;20042;-72
2023/05/21 16:47:50;;;;;;;16.42;5.10;;;28.00;52.50;;;;;;10866024;32;20024;-73
2023/05/21 16:53:52;;;;;;;7.47;4.80;;;28.00;52.40;;;;;;10862310;32;20321;-71
2023/05/21 16:59:54;;;;;;;5.40;3.58;;;27.90;51.20;;;;;;10852697;32;20069;-71
2023/05/21 17:05:56;;;;;;;8.68;4.00;;;27.90;50.70;;;;;;10865407;32;20078;-72
2023/05/21 17:11:58;;;;;;;4.53;3.33;;;27.80;51.20;;;;;;10862708;32;20019;-72
2023/05/21 17:18:00;;;;;;;6.07;4.07;;;27.90;51.60;;;;;;10865807;32;20291;-72
2023/05/21 17:24:03;;;;;;;6.37;4.12;;;27.90;51.30;;;;;;10864607;32;20019;-72
2023/05/21 17:30:06;;;;;;;3.87;3.03;;;27.80;51.30;;;;;;10850749;32;20445;-72
2023/05/21 17:36:08;;;;;;;6.80;3.55;;;27.80;51.30;;;;;;10862138;32;20016;-72
2023/05/21 17:42:10;;;;;;;5.72;4.28;;;27.80;51.40;;;;;;10865288;32;20267;-72
2023/05/21 17:48:12;;;;;;;6.30;4.03;;;27.80;51.30;;;;;;10864984;32;20041;-72
2023/05/21 17:54:15;;;;;;;4.53;2.92;;;28.20;51.00;;;;;;10864882;32;20047;-72
2023/05/21 18:00:17;;;;;;;7.07;3.87;;;29.00;49.90;;;;;;10863504;32;20016;-72
2023/05/21 18:06:19;;;;;;;4.53;2.97;;;28.80;50.80;;;;;;10864469;32;20362;-72
2023/05/21 18:12:21;;;;;;;4.68;3.12;;;28.00;52.70;;;;;;10863027;32;20035;-72
2023/05/21 18:18:24;;;;;;;6.15;3.25;;;27.40;54.00;;;;;;10863655;32;20016;-72
2023/05/21 18:24:26;;;;;;;5.50;3.25;;;27.10;54.80;;;;;;10863181;32;20050;-72
2023/05/21 18:30:28;;;;;;;4.55;2.83;;;26.70;55.70;;;;;;10833171;32;20413;-72
2023/05/21 18:36:37;;;;;;;4.65;2.95;;;26.40;56.80;;;;;;10812911;33;20046;-72
2023/05/21 18:42:40;;;;;;;6.82;2.85;;;26.20;58.20;;;;;;10825427;33;20432;-72
2023/05/21 18:48:42;;;;;;;3.80;2.20;;;26.00;59.60;;;;;;10811460;33;20039;-72
2023/05/21 18:54:44;;;;;;;2.80;2.20;;;25.80;60.40;;;;;;10813749;33;20042;-72
2023/05/21 19:00:46;;;;;;;8.98;3.20;;;25.70;60.50;;;;;;10811353;33;20073;-72
2023/05/21 19:06:48;;;;;;;3.33;2.17;;;25.50;60.80;;;;;;10825790;33;20062;-72
2023/05/21 19:12:50;;;;;;;4.32;2.70;;;25.50;61.00;;;;;;10812587;33;20032;-72
2023/05/21 19:18:52;;;;;;;5.65;2.37;;;25.30;62.80;;;;;;10826101;33;20043;-72
2023/05/21 19:24:54;;;;;;;5.05;2.58;;;25.10;63.50;;;;;;10820874;33;20063;-71
2023/05/21 19:30:57;;;;;;;2.60;1.55;;;25.00;64.70;;;;;;10808454;33;20050;-71
2023/05/21 19:36:59;;;;;;;4.30;3.12;;;24.80;66.10;;;;;;10821507;33;20059;-70
2023/05/21 19:43:01;;;;;;;4.18;2.20;;;24.80;66.20;;;;;;10809211;33;20024;-70
2023/05/21 19:49:04;;;;;;;3.83;2.60;;;24.80;66.60;;;;;;10824219;33;20049;-71
2023/05/21 19:55:08;;;;;;;4.40;2.80;;;24.70;67.20;;;;;;10809080;33;20029;-71
2023/05/21 20:01:13;;;;;;;3.30;2.15;;;24.60;67.40;;;;;;10824648;33;20338;-71
2023/05/21 20:07:25;;;;;;;4.87;3.03;;;24.50;67.70;;;;;;10824477;33;20376;-71
2023/05/21 20:13:27;;;;;;;4.03;2.22;;;24.40;68.30;;;;;;10824426;33;20401;-71
2023/05/21 20:19:29;;;;;;;5.12;2.22;;;24.40;68.50;;;;;;10823711;33;20021;-71
2023/05/21 20:25:31;;;;;;;3.30;2.10;;;24.30;68.50;;;;;;10823517;33;20393;-71
2023/05/21 20:31:33;;;;;;;3.90;2.33;;;24.30;69.60;;;;;;10824379;32;20043;-71
2023/05/21 20:37:36;;;;;;;3.08;2.03;;;24.20;69.90;;;;;;10830243;33;20338;-71
2023/05/21 20:43:38;;;;;;;5.22;3.15;;;24.20;70.30;;;;;;10829981;33;20016;-71
2023/05/21 20:49:40;;;;;;;5.53;3.33;;;24.10;70.60;;;;;;10829038;33;20024;-71
2023/05/21 20:55:43;;;;;;;4.95;2.92;;;24.00;70.60;;;;;;10829532;33;20021;-71
2023/05/21 21:01:45;;;;;;;5.60;3.22;;;24.00;70.90;;;;;;10824780;33;20055;-71
2023/05/21 21:07:47;;;;;;;3.60;2.62;;;23.90;71.10;;;;;;10824992;33;20046;-71
2023/05/21 21:13:49;;;;;;;5.18;2.62;;;23.90;71.30;;;;;;10827712;33;20066;-71
2023/05/21 21:19:51;;;;;;;5.30;2.55;;;24.00;71.40;;;;;;10814284;33;20036;-71
2023/05/21 21:25:53;;;;;;;3.08;1.83;;;24.00;71.80;;;;;;10830996;32;20062;-71
2023/05/21 21:31:56;;;;;;;3.08;1.90;;;23.90;72.20;;;;;;10811354;33;20067;-71
2023/05/21 21:37:58;;;;;;;3.65;2.40;;;23.80;72.10;;;;;;10828399;33;20032;-71
2023/05/21 21:44:00;;;;;;;4.85;2.75;;;23.80;72.40;;;;;;10824350;32;20046;-71
2023/05/21 21:50:02;;;;;;;3.25;2.28;;;23.70;72.90;;;;;;10824807;33;20058;-71
2023/05/21 21:56:05;;;;;;;4.45;3.25;;;23.50;73.20;;;;;;10827947;33;20043;-71
2023/05/21 22:02:07;;;;;;;5.32;3.03;;;23.40;73.70;;;;;;10815326;33;20322;-71
2023/05/21 22:08:09;;;;;;;3.95;2.42;;;23.40;74.20;;;;;;10824871;33;20024;-71
2023/05/21 22:14:11;;;;;;;6.05;3.83;;;23.40;74.20;;;;;;10827383;33;20024;-71
2023/05/21 22:20:13;;;;;;;7.28;4.03;;;23.40;73.90;;;;;;10812224;33;20312;-71
2023/05/21 22:26:15;;;;;;;11.82;5.65;;;23.30;73.50;;;;;;10813388;33;20055;-71
2023/05/21 22:32:17;;;;;;;5.82;3.80;;;23.30;73.20;;;;;;10826903;33;20016;-71
2023/05/21 22:38:19;;;;;;;6.00;3.45;;;23.30;73.70;;;;;;10822873;33;20051;-71
2023/05/21 22:44:21;;;;;;;6.90;4.68;;;23.30;74.30;;;;;;10812692;33;20062;-71
2023/05/21 22:50:24;;;;;;;6.93;4.50;;;23.30;74.30;;;;;;10825112;33;20024;-72
2023/05/21 22:56:26;;;;;;;6.65;4.85;;;23.30;74.30;;;;;;10821966;33;20056;-71
2023/05/21 23:02:28;;;;;;;9.18;6.07;;;23.30;74.30;;;;;;10824802;33;20295;-71
2023/05/21 23:08:32;;;;;;;7.53;4.68;;;23.30;74.20;;;;;;10825805;33;20024;-71
2023/05/21 23:14:37;;;;;;;7.28;4.12;;;23.20;73.80;;;;;;10811198;33;20323;-71
2023/05/21 23:20:51;;;;;;;8.52;3.92;;;23.20;74.00;;;;;;10825531;33;20043;-71
2023/05/21 23:27:00;;;;;;;6.00;4.32;;;23.30;74.00;;;;;;10850807;27;20046;-72
2023/05/21 23:33:05;;;;;;;5.07;2.95;;;23.30;74.40;;;;;;10861147;32;20081;-70
2023/05/21 23:39:07;;;;;;;5.75;3.75;;;23.30;74.30;;;;;;10861031;32;20016;-72
2023/05/21 23:45:35;;;;;;;5.73;3.63;;;23.30;75.00;;;;;;10860861;32;20078;-71
2023/05/21 23:51:37;;;;;;;14.75;4.00;;;23.30;75.30;;;;;;10861304;32;20016;-71
2023/05/21 23:57:39;;;;;;;7.07;3.45;;;23.30;75.30;;;;;;10861157;32;20042;-71
